createdAt,value
2018-05-29T00:00:05.622Z,21.61
2018-05-29T00:02:33.064Z,21.56
2018-05-29T00:05:00.519Z,21.49
2018-05-29T00:07:28.050Z,21.48
2018-05-29T00:09:55.884Z,21.47
2018-05-29T00:12:24.242Z,21.48
2018-05-29T00:14:51.724Z,21.50
2018-05-29T00:17:19.168Z,21.51
2018-05-29T00:19:46.580Z,21.51
2018-05-29T00:22:14.020Z,21.47
2018-05-29T00:24:41.443Z,21.46
2018-05-29T00:27:08.865Z,21.45
2018-05-29T00:29:36.292Z,21.46
2018-05-29T00:32:03.756Z,21.44
2018-05-29T00:34:31.208Z,21.41
2018-05-29T00:36:58.706Z,21.39
2018-05-29T00:39:26.196Z,21.38
2018-05-29T00:41:53.709Z,21.37
2018-05-29T00:44:21.200Z,21.35
2018-05-29T00:46:48.628Z,21.34
2018-05-29T00:49:16.061Z,21.34
2018-05-29T00:51:43.480Z,21.32
2018-05-29T00:54:10.913Z,21.29
2018-05-29T00:56:38.328Z,21.27
2018-05-29T00:59:05.760Z,21.24
2018-05-29T01:01:33.181Z,21.21
2018-05-29T01:04:00.617Z,21.17
2018-05-29T01:06:28.033Z,21.12
2018-05-29T01:08:55.444Z,21.08
2018-05-29T01:11:22.869Z,21.06
2018-05-29T01:13:50.280Z,21.06
2018-05-29T01:16:17.719Z,21.02
2018-05-29T01:18:45.128Z,20.98
2018-05-29T01:21:12.563Z,20.93
2018-05-29T01:23:39.984Z,20.87
2018-05-29T01:26:07.392Z,20.85
2018-05-29T01:28:34.834Z,20.84
2018-05-29T01:31:02.306Z,20.80
2018-05-29T01:33:29.757Z,20.70
2018-05-29T01:35:57.336Z,20.66
2018-05-29T01:38:24.921Z,20.62
2018-05-29T01:40:52.485Z,20.58
2018-05-29T01:43:19.948Z,20.55
2018-05-29T01:45:47.398Z,20.52
2018-05-29T01:48:14.832Z,20.49
2018-05-29T01:50:42.268Z,20.45
2018-05-29T01:55:51.801Z,20.45
2018-05-29T01:58:19.227Z,20.45
2018-05-29T02:00:46.840Z,20.44
2018-05-29T02:03:14.256Z,20.41
2018-05-29T02:05:41.664Z,20.37
2018-05-29T02:08:09.097Z,20.32
2018-05-29T02:10:36.509Z,20.29
2018-05-29T02:13:03.937Z,20.27
2018-05-29T02:15:31.345Z,20.24
2018-05-29T02:17:58.764Z,20.18
2018-05-29T02:20:26.183Z,20.13
2018-05-29T02:22:53.628Z,20.12
2018-05-29T02:25:21.028Z,20.11
2018-05-29T02:27:48.431Z,20.08
2018-05-29T02:30:16.138Z,20.04
2018-05-29T02:32:43.540Z,19.97
2018-05-29T02:35:10.957Z,19.89
2018-05-29T02:37:38.395Z,19.86
2018-05-29T02:40:05.815Z,19.83
2018-05-29T02:42:33.294Z,19.83
2018-05-29T02:45:00.776Z,19.85
2018-05-29T02:47:28.239Z,19.89
2018-05-29T02:49:56.120Z,19.90
2018-05-29T02:52:23.674Z,19.89
2018-05-29T02:54:51.123Z,19.82
2018-05-29T02:57:18.562Z,19.74
2018-05-29T02:59:46.002Z,19.66
2018-05-29T03:02:13.473Z,19.64
2018-05-29T03:04:40.888Z,19.64
2018-05-29T03:07:08.301Z,19.65
2018-05-29T03:09:35.749Z,19.68
2018-05-29T03:12:03.219Z,19.69
2018-05-29T03:14:30.674Z,19.73
2018-05-29T03:16:58.154Z,19.76
2018-05-29T03:19:25.759Z,19.79
2018-05-29T03:21:53.352Z,19.78
2018-05-29T03:24:20.815Z,19.75
2018-05-29T03:26:48.243Z,19.72
2018-05-29T03:29:15.652Z,19.69
2018-05-29T03:31:43.220Z,19.69
2018-05-29T03:34:10.641Z,19.72
2018-05-29T03:36:38.065Z,19.77
2018-05-29T03:39:05.518Z,19.80
2018-05-29T03:41:32.985Z,19.83
2018-05-29T03:44:00.478Z,19.85
2018-05-29T03:46:27.932Z,19.87
2018-05-29T03:48:55.461Z,19.95
2018-05-29T03:51:23.798Z,20.02
2018-05-29T03:53:51.319Z,20.09
2018-05-29T03:56:18.838Z,20.13
2018-05-29T03:58:46.260Z,20.21
2018-05-29T04:01:13.680Z,20.27
2018-05-29T04:03:41.094Z,20.34
2018-05-29T04:06:08.508Z,20.40
2018-05-29T04:08:35.929Z,20.39
2018-05-29T04:11:03.342Z,20.42
2018-05-29T04:13:30.763Z,20.45
2018-05-29T04:15:58.176Z,20.55
2018-05-29T04:18:25.597Z,20.61
2018-05-29T04:20:53.024Z,20.70
2018-05-29T04:23:20.430Z,20.83
2018-05-29T04:25:47.865Z,21.08
2018-05-29T04:28:15.286Z,21.66
2018-05-29T04:30:42.696Z,22.37
2018-05-29T04:33:10.119Z,23.07
2018-05-29T04:35:37.537Z,23.77
2018-05-29T04:38:04.966Z,24.41
2018-05-29T04:40:32.380Z,25.08
2018-05-29T04:42:59.808Z,25.74
2018-05-29T04:45:27.221Z,26.35
2018-05-29T04:47:54.648Z,26.92
2018-05-29T04:50:22.200Z,27.46
2018-05-29T04:52:49.630Z,27.91
2018-05-29T04:55:17.043Z,28.26
2018-05-29T04:57:44.465Z,28.60
2018-05-29T05:00:11.879Z,28.93
2018-05-29T05:02:39.343Z,29.23
2018-05-29T05:05:06.726Z,29.47
2018-05-29T05:07:34.188Z,29.70
2018-05-29T05:10:01.651Z,29.76
2018-05-29T05:12:29.072Z,29.87
2018-05-29T05:14:56.479Z,30.06
2018-05-29T05:17:24.195Z,30.23
2018-05-29T05:19:51.616Z,30.38
2018-05-29T05:22:19.030Z,30.59
2018-05-29T05:24:46.460Z,30.55
2018-05-29T05:27:13.909Z,30.79
2018-05-29T05:29:41.341Z,30.96
2018-05-29T05:32:08.771Z,31.06
2018-05-29T05:34:36.208Z,31.37
2018-05-29T05:37:03.965Z,31.45
2018-05-29T05:39:31.448Z,31.85
2018-05-29T05:41:58.911Z,32.24
2018-05-29T05:44:26.427Z,32.69
2018-05-29T05:46:53.915Z,33.02
2018-05-29T05:49:21.448Z,32.92
2018-05-29T05:51:48.872Z,32.94
2018-05-29T05:54:16.332Z,32.92
2018-05-29T05:56:43.759Z,33.09
2018-05-29T05:59:11.172Z,33.17
2018-05-29T06:01:38.606Z,33.49
2018-05-29T06:04:06.445Z,33.56
2018-05-29T06:06:33.856Z,33.71
2018-05-29T06:09:01.284Z,33.91
2018-05-29T06:11:28.712Z,34.22
2018-05-29T06:13:56.134Z,34.43
2018-05-29T06:16:23.592Z,34.63
2018-05-29T06:18:50.980Z,34.85
2018-05-29T06:21:18.389Z,34.95
2018-05-29T06:23:45.825Z,34.93
2018-05-29T06:26:13.244Z,34.96
2018-05-29T06:28:40.656Z,35.16
2018-05-29T06:31:08.228Z,35.24
2018-05-29T06:33:35.663Z,35.28
2018-05-29T06:36:03.129Z,35.41
2018-05-29T06:38:30.597Z,35.12
2018-05-29T06:40:58.074Z,35.34
2018-05-29T06:43:26.646Z,35.58
2018-05-29T06:45:55.071Z,35.74
2018-05-29T06:48:27.502Z,35.97
2018-05-29T06:50:55.109Z,35.94
2018-05-29T06:53:22.672Z,35.87
2018-05-29T06:55:50.110Z,36.06
2018-05-29T06:58:17.567Z,36.11
2018-05-29T07:00:44.992Z,36.25
2018-05-29T07:03:12.429Z,36.34
2018-05-29T07:05:39.844Z,36.43
2018-05-29T07:08:07.271Z,36.55
2018-05-29T07:10:34.739Z,36.62
2018-05-29T07:13:02.221Z,36.35
2018-05-29T07:15:29.708Z,36.52
2018-05-29T07:17:57.126Z,36.68
2018-05-29T07:20:24.553Z,36.84
2018-05-29T07:22:51.980Z,36.99
2018-05-29T07:25:19.423Z,37.09
2018-05-29T07:27:46.844Z,37.17
2018-05-29T07:30:14.283Z,36.89
2018-05-29T07:32:41.696Z,36.89
2018-05-29T07:35:09.119Z,36.76
2018-05-29T07:37:36.841Z,36.76
2018-05-29T07:40:04.265Z,36.66
2018-05-29T07:42:31.685Z,36.60
2018-05-29T07:44:59.128Z,36.72
2018-05-29T07:47:26.544Z,36.77
2018-05-29T07:49:55.052Z,36.72
2018-05-29T07:52:22.456Z,36.50
2018-05-29T07:54:49.877Z,36.60
2018-05-29T07:57:17.312Z,36.65
2018-05-29T07:59:44.726Z,36.37
2018-05-29T08:02:12.305Z,36.24
2018-05-29T08:04:39.712Z,35.92
2018-05-29T08:07:07.142Z,35.83
2018-05-29T08:09:34.582Z,36.06
2018-05-29T08:12:02.032Z,36.00
2018-05-29T08:14:29.920Z,35.88
2018-05-29T08:16:57.340Z,35.91
2018-05-29T08:19:24.755Z,35.70
2018-05-29T08:21:52.180Z,35.30
2018-05-29T08:24:19.621Z,35.21
2018-05-29T08:26:47.049Z,35.23
2018-05-29T08:29:14.483Z,35.01
2018-05-29T08:31:41.915Z,34.99
2018-05-29T08:34:09.332Z,34.93
2018-05-29T08:36:36.760Z,34.83
2018-05-29T08:39:04.221Z,34.65
2018-05-29T08:41:31.671Z,34.51
2018-05-29T08:43:59.188Z,34.46
2018-05-29T08:46:26.650Z,34.19
2018-05-29T08:48:54.106Z,34.23
2018-05-29T08:51:21.680Z,34.35
2018-05-29T08:53:49.123Z,34.20
2018-05-29T08:56:16.604Z,33.94
2018-05-29T08:58:44.021Z,33.73
2018-05-29T09:01:11.743Z,33.78
2018-05-29T09:03:39.149Z,33.87
2018-05-29T09:06:06.558Z,33.90
2018-05-29T09:08:34.037Z,33.81
2018-05-29T09:11:01.466Z,33.48
2018-05-29T09:13:28.899Z,33.40
2018-05-29T09:15:56.458Z,33.47
2018-05-29T09:18:24.119Z,33.32
2018-05-29T09:20:51.793Z,33.33
2018-05-29T09:23:19.217Z,32.98
2018-05-29T09:25:46.699Z,32.71
2018-05-29T09:28:14.372Z,32.99
2018-05-29T09:30:41.792Z,33.35
2018-05-29T09:33:09.202Z,33.71
2018-05-29T09:35:36.628Z,33.83
2018-05-29T09:38:04.097Z,34.19
2018-05-29T09:40:31.611Z,34.41
2018-05-29T09:42:59.073Z,34.62
2018-05-29T09:45:26.726Z,34.69
2018-05-29T09:47:54.278Z,34.78
2018-05-29T09:50:22.272Z,34.94
2018-05-29T09:52:49.710Z,34.85
2018-05-29T09:55:17.100Z,34.73
2018-05-29T09:57:44.523Z,34.38
2018-05-29T10:00:11.937Z,34.03
2018-05-29T10:02:39.501Z,33.69
2018-05-29T10:05:06.929Z,33.47
2018-05-29T10:07:34.340Z,33.14
2018-05-29T10:10:01.758Z,32.76
2018-05-29T10:12:29.219Z,32.49
2018-05-29T10:14:56.625Z,32.27
2018-05-29T10:17:24.050Z,32.19
2018-05-29T10:19:51.459Z,32.12
2018-05-29T10:22:19.029Z,32.10
2018-05-29T10:24:46.443Z,32.23
2018-05-29T10:27:13.870Z,32.34
2018-05-29T10:29:41.298Z,32.58
2018-05-29T10:32:08.721Z,32.43
2018-05-29T10:34:36.137Z,32.52
2018-05-29T10:37:03.658Z,32.56
2018-05-29T10:39:31.080Z,32.51
2018-05-29T10:41:58.657Z,32.44
2018-05-29T10:44:26.074Z,32.31
2018-05-29T10:46:53.489Z,32.27
2018-05-29T10:49:20.923Z,32.31
2018-05-29T10:51:48.329Z,32.21
2018-05-29T10:54:15.754Z,32.09
2018-05-29T10:56:43.184Z,32.08
2018-05-29T10:59:10.640Z,32.07
2018-05-29T11:01:38.052Z,31.95
2018-05-29T11:04:05.478Z,31.82
2018-05-29T11:06:32.905Z,31.71
2018-05-29T11:09:00.317Z,31.64
2018-05-29T11:11:27.739Z,31.45
2018-05-29T11:13:55.327Z,31.31
2018-05-29T11:16:22.792Z,31.31
2018-05-29T11:18:50.216Z,31.37
2018-05-29T11:21:17.644Z,31.46
2018-05-29T11:23:45.056Z,31.46
2018-05-29T11:26:12.484Z,31.46
2018-05-29T11:28:39.912Z,31.51
2018-05-29T11:31:07.376Z,31.54
2018-05-29T11:33:34.766Z,31.64
2018-05-29T11:36:02.189Z,31.73
2018-05-29T11:38:29.769Z,31.74
2018-05-29T11:40:57.176Z,31.74
2018-05-29T11:43:24.642Z,31.68
2018-05-29T11:45:52.179Z,31.55
2018-05-29T11:48:19.659Z,31.52
2018-05-29T11:50:47.043Z,31.57
2018-05-29T11:53:14.473Z,31.55
2018-05-29T11:55:41.908Z,31.60
2018-05-29T11:58:10.057Z,31.63
2018-05-29T12:00:37.524Z,31.61
2018-05-29T12:03:04.949Z,31.65
2018-05-29T12:05:32.409Z,31.76
2018-05-29T12:08:01.867Z,31.80
2018-05-29T12:10:29.295Z,31.87
2018-05-29T12:12:56.745Z,31.95
2018-05-29T12:15:24.177Z,31.96
2018-05-29T12:17:52.551Z,32.11
2018-05-29T12:20:22.283Z,32.07
2018-05-29T12:22:51.094Z,32.13
2018-05-29T12:25:18.533Z,32.17
2018-05-29T12:27:45.982Z,32.00
2018-05-29T12:30:13.916Z,32.08
2018-05-29T12:32:43.718Z,31.97
2018-05-29T12:35:11.952Z,31.91
2018-05-29T12:37:39.375Z,31.96
2018-05-29T12:40:06.785Z,32.05
2018-05-29T12:42:34.273Z,31.88
2018-05-29T12:45:01.742Z,31.95
2018-05-29T12:47:29.189Z,31.93
2018-05-29T12:49:56.633Z,31.95
2018-05-29T12:52:24.093Z,32.02
2018-05-29T12:54:51.510Z,31.90
2018-05-29T12:57:18.952Z,31.83
2018-05-29T12:59:46.392Z,31.77
2018-05-29T13:02:14.141Z,31.81
2018-05-29T13:04:41.547Z,31.95
2018-05-29T13:07:08.960Z,31.85
2018-05-29T13:09:36.413Z,31.91
2018-05-29T13:12:03.852Z,32.00
2018-05-29T13:14:31.337Z,32.00
2018-05-29T13:16:58.976Z,32.01
2018-05-29T13:19:26.387Z,32.12
2018-05-29T13:21:53.800Z,32.05
2018-05-29T13:24:21.476Z,32.05
2018-05-29T13:26:48.894Z,32.10
2018-05-29T13:29:16.304Z,32.07
2018-05-29T13:31:43.728Z,32.05
2018-05-29T13:34:11.301Z,31.95
2018-05-29T13:36:38.721Z,31.87
2018-05-29T13:39:06.191Z,31.62
2018-05-29T13:41:33.589Z,31.63
2018-05-29T13:44:01.015Z,31.61
2018-05-29T13:46:28.476Z,31.72
2018-05-29T13:48:56.026Z,31.66
2018-05-29T13:51:23.471Z,31.55
2018-05-29T13:53:50.901Z,31.52
2018-05-29T13:56:18.347Z,31.54
2018-05-29T13:58:45.769Z,31.56
2018-05-29T14:01:13.176Z,31.55
2018-05-29T14:03:40.595Z,31.50
2018-05-29T14:06:08.036Z,31.53
2018-05-29T14:08:35.444Z,31.46
2018-05-29T14:11:02.888Z,31.38
2018-05-29T14:13:30.315Z,31.40
2018-05-29T14:15:57.771Z,31.44
2018-05-29T14:18:25.261Z,31.35
2018-05-29T14:20:53.929Z,31.37
2018-05-29T14:23:22.548Z,31.38
2018-05-29T14:25:49.971Z,31.44
2018-05-29T14:28:17.405Z,31.48
2018-05-29T14:30:44.820Z,31.48
2018-05-29T14:33:12.248Z,31.53
2018-05-29T14:35:39.687Z,31.55
2018-05-29T14:38:07.131Z,31.54
2018-05-29T14:40:34.556Z,31.62
2018-05-29T14:43:01.967Z,31.55
2018-05-29T14:45:29.485Z,31.57
2018-05-29T14:47:57.111Z,31.60
2018-05-29T14:50:24.701Z,31.59
2018-05-29T14:52:52.194Z,31.52
2018-05-29T14:55:19.651Z,31.56
2018-05-29T14:57:47.482Z,31.55
2018-05-29T15:00:15.032Z,31.54
2018-05-29T15:02:42.461Z,31.56
2018-05-29T15:05:09.884Z,31.61
2018-05-29T15:07:37.435Z,31.54
2018-05-29T15:10:07.264Z,31.54
2018-05-29T15:12:35.812Z,31.54
2018-05-29T15:15:03.267Z,31.52
2018-05-29T15:17:30.791Z,31.51
2018-05-29T15:19:58.232Z,31.49
2018-05-29T15:22:25.760Z,31.43
2018-05-29T15:24:53.273Z,31.42
2018-05-29T15:27:20.706Z,31.42
2018-05-29T15:29:48.128Z,31.44
2018-05-29T15:32:15.545Z,31.42
2018-05-29T15:34:42.976Z,31.41
2018-05-29T15:37:10.393Z,31.38
2018-05-29T15:39:37.955Z,31.35
2018-05-29T15:42:05.372Z,31.31
2018-05-29T15:44:32.857Z,31.25
2018-05-29T15:47:00.335Z,31.14
2018-05-29T15:49:27.906Z,31.02
2018-05-29T15:51:55.401Z,30.92
2018-05-29T15:54:22.847Z,30.74
2018-05-29T15:56:50.276Z,30.47
2018-05-29T15:59:17.701Z,30.27
2018-05-29T16:01:45.160Z,30.26
2018-05-29T16:04:12.566Z,30.29
2018-05-29T16:06:39.975Z,30.28
2018-05-29T16:09:07.487Z,30.19
2018-05-29T16:11:34.942Z,29.96
2018-05-29T16:14:02.441Z,29.43
2018-05-29T16:16:29.942Z,29.11
2018-05-29T16:18:57.603Z,28.68
2018-05-29T16:21:25.104Z,28.09
2018-05-29T16:23:52.924Z,27.57
2018-05-29T16:26:20.361Z,27.02
2018-05-29T16:28:47.795Z,26.68
2018-05-29T16:31:15.208Z,26.24
2018-05-29T16:33:42.628Z,25.82
2018-05-29T16:36:10.063Z,25.15
2018-05-29T16:38:37.499Z,24.88
2018-05-29T16:41:05.219Z,24.37
2018-05-29T16:43:32.656Z,24.17
2018-05-29T16:46:00.162Z,23.94
2018-05-29T16:48:27.780Z,23.86
2018-05-29T16:50:55.242Z,23.74
2018-05-29T16:53:22.819Z,23.68
2018-05-29T16:55:50.271Z,23.68
2018-05-29T16:58:17.691Z,23.69
2018-05-29T17:00:45.284Z,23.68
2018-05-29T17:03:12.719Z,23.70
2018-05-29T17:05:40.355Z,23.61
2018-05-29T17:08:07.818Z,23.25
2018-05-29T17:10:35.234Z,23.12
2018-05-29T17:13:02.677Z,22.92
2018-05-29T17:15:30.176Z,22.69
2018-05-29T17:17:57.688Z,22.43
2018-05-29T17:20:25.400Z,22.40
2018-05-29T17:22:52.841Z,22.40
2018-05-29T17:25:20.267Z,22.42
2018-05-29T17:27:47.783Z,22.48
2018-05-29T17:30:15.205Z,22.53
2018-05-29T17:32:42.637Z,22.58
2018-05-29T17:35:10.063Z,22.64
2018-05-29T17:37:37.503Z,22.64
2018-05-29T17:40:04.904Z,22.68
2018-05-29T17:42:32.374Z,22.70
2018-05-29T17:44:59.848Z,22.70
2018-05-29T17:47:27.439Z,22.72
2018-05-29T17:49:54.986Z,22.71
2018-05-29T17:52:22.411Z,22.70
2018-05-29T17:54:49.825Z,22.67
2018-05-29T17:57:17.249Z,22.67
2018-05-29T17:59:44.674Z,22.66
2018-05-29T18:02:12.434Z,22.65
2018-05-29T18:04:39.833Z,22.60
2018-05-29T18:07:07.238Z,22.59
2018-05-29T18:09:34.668Z,22.61
2018-05-29T18:12:02.092Z,22.63
2018-05-29T18:14:29.554Z,22.63
2018-05-29T18:16:57.078Z,22.65
2018-05-29T18:19:24.539Z,22.69
2018-05-29T18:21:51.955Z,22.76
2018-05-29T18:24:19.379Z,22.82
2018-05-29T18:26:46.832Z,22.77
2018-05-29T18:29:14.224Z,22.74
2018-05-29T18:31:41.656Z,22.74
2018-05-29T18:34:09.064Z,22.77
2018-05-29T18:36:36.788Z,22.79
2018-05-29T18:39:06.943Z,22.81
2018-05-29T18:41:34.356Z,22.83
2018-05-29T18:44:01.788Z,22.84
2018-05-29T18:46:29.210Z,22.83
2018-05-29T18:48:57.039Z,22.81
2018-05-29T18:51:24.505Z,22.78
2018-05-29T18:53:51.941Z,22.77
2018-05-29T18:56:19.440Z,22.77
2018-05-29T18:58:46.856Z,22.79
2018-05-29T19:01:14.286Z,22.79
2018-05-29T19:03:41.720Z,22.81
2018-05-29T19:06:09.148Z,22.83
2018-05-29T19:08:36.580Z,22.84
2018-05-29T19:11:04.117Z,22.88
2018-05-29T19:13:31.625Z,22.91
2018-05-29T19:15:59.203Z,22.96
2018-05-29T19:18:26.631Z,23.00
2018-05-29T19:20:54.055Z,23.03
2018-05-29T19:23:21.472Z,23.06
2018-05-29T19:25:48.895Z,23.07
2018-05-29T19:28:16.321Z,23.07
2018-05-29T19:30:43.768Z,23.10
2018-05-29T19:33:11.619Z,23.11
2018-05-29T19:35:39.028Z,23.11
2018-05-29T19:38:06.536Z,23.10
2018-05-29T19:40:34.240Z,23.10
2018-05-29T19:43:01.864Z,23.11
2018-05-29T19:45:29.392Z,23.11
2018-05-29T19:47:56.887Z,23.11
2018-05-29T19:50:24.452Z,23.12
2018-05-29T19:52:51.864Z,23.14
2018-05-29T19:55:19.330Z,23.12
2018-05-29T19:57:46.776Z,23.13
2018-05-29T20:00:14.192Z,23.12
2018-05-29T20:02:41.941Z,23.12
2018-05-29T20:05:09.363Z,23.12
2018-05-29T20:07:36.778Z,23.12
2018-05-29T20:10:04.899Z,23.14
2018-05-29T20:12:32.366Z,23.15
2018-05-29T20:14:59.779Z,23.15
2018-05-29T20:17:31.273Z,23.14
2018-05-29T20:20:01.758Z,23.12
2018-05-29T20:22:29.294Z,23.10
2018-05-29T20:24:57.126Z,23.10
2018-05-29T20:27:24.630Z,23.08
2018-05-29T20:29:52.217Z,23.04
2018-05-29T20:32:19.989Z,22.99
2018-05-29T20:34:47.605Z,22.94
2018-05-29T20:37:15.495Z,22.89
2018-05-29T20:39:42.924Z,22.82
2018-05-29T20:42:10.344Z,22.74
2018-05-29T20:44:37.951Z,22.66
2018-05-29T20:47:05.450Z,22.58
2018-05-29T20:49:34.382Z,22.50
2018-05-29T20:52:03.281Z,22.42
2018-05-29T20:54:35.053Z,22.37
2018-05-29T20:57:03.805Z,22.32
2018-05-29T20:59:31.391Z,22.31
2018-05-29T21:02:02.190Z,22.31
2018-05-29T21:04:29.867Z,22.33
2018-05-29T21:06:57.415Z,22.33
2018-05-29T21:09:26.582Z,22.32
2018-05-29T21:11:56.558Z,22.32
2018-05-29T21:14:24.109Z,22.32
2018-05-29T21:16:51.575Z,22.31
2018-05-29T21:19:19.001Z,22.30
2018-05-29T21:21:46.734Z,22.30
2018-05-29T21:24:14.168Z,22.27
2018-05-29T21:26:45.240Z,22.26
2018-05-29T21:29:12.890Z,22.18
2018-05-29T21:31:40.307Z,22.06
2018-05-29T21:34:07.810Z,21.89
2018-05-29T21:36:35.264Z,21.84
2018-05-29T21:39:04.461Z,21.86
2018-05-29T21:41:33.176Z,21.93
2018-05-29T21:44:00.691Z,21.98
2018-05-29T21:46:28.470Z,21.98
2018-05-29T21:48:55.997Z,21.93
2018-05-29T21:51:23.565Z,21.95
2018-05-29T21:53:51.025Z,21.97
2018-05-29T21:56:18.444Z,21.99
2018-05-29T21:58:45.856Z,22.03
2018-05-29T22:01:13.297Z,22.05
2018-05-29T22:03:40.719Z,22.06
2018-05-29T22:06:08.139Z,22.04
2018-05-29T22:08:35.891Z,22.04
2018-05-29T22:11:03.308Z,22.04
2018-05-29T22:13:30.781Z,22.01
2018-05-29T22:15:58.268Z,21.96
2018-05-29T22:18:25.682Z,21.91
2018-05-29T22:20:53.141Z,21.84
2018-05-29T22:23:20.608Z,21.67
2018-05-29T22:25:49.410Z,21.51
2018-05-29T22:28:17.095Z,21.35
2018-05-29T22:30:44.525Z,21.18
2018-05-29T22:33:11.945Z,21.06
2018-05-29T22:35:39.417Z,20.86
2018-05-29T22:38:06.843Z,20.83
2018-05-29T22:40:35.320Z,20.78
2018-05-29T22:43:02.778Z,20.74
2018-05-29T22:45:30.217Z,20.71
2018-05-29T22:47:57.690Z,20.68
2018-05-29T22:50:25.167Z,20.66
2018-05-29T22:52:52.608Z,20.65
2018-05-29T22:55:20.114Z,20.64
2018-05-29T22:57:47.533Z,20.63
2018-05-29T23:00:14.952Z,20.62
2018-05-29T23:02:42.595Z,20.59
2018-05-29T23:05:10.004Z,20.57
2018-05-29T23:07:37.422Z,20.56
2018-05-29T23:10:04.863Z,20.57
2018-05-29T23:12:32.318Z,20.58
2018-05-29T23:14:59.753Z,20.56
2018-05-29T23:17:27.271Z,20.56
2018-05-29T23:19:54.753Z,20.55
2018-05-29T23:22:22.182Z,20.40
2018-05-29T23:24:49.590Z,20.33
2018-05-29T23:27:17.008Z,20.19
2018-05-29T23:29:44.774Z,20.14
2018-05-29T23:32:12.184Z,20.13
2018-05-29T23:34:39.604Z,20.06
2018-05-29T23:37:07.380Z,20.02
2018-05-29T23:39:34.797Z,20.00
2018-05-29T23:42:02.256Z,19.93
2018-05-29T23:44:29.904Z,19.85
2018-05-29T23:46:57.371Z,19.89
2018-05-29T23:49:24.930Z,19.91
2018-05-29T23:51:52.379Z,19.94
2018-05-29T23:54:19.805Z,19.94
2018-05-29T23:56:47.236Z,19.93
2018-05-29T23:59:14.661Z,19.92
